createdAt,value
2018-04-29T00:01:33.904Z,79.70
2018-04-29T00:06:36.166Z,79.30
2018-04-29T00:11:37.636Z,79.30
2018-04-29T00:16:40.081Z,80.00
2018-04-29T00:21:41.615Z,79.80
2018-04-29T00:26:43.301Z,79.30
2018-04-29T00:31:44.959Z,79.80
2018-04-29T00:36:46.483Z,80.50
2018-04-29T00:41:47.995Z,77.10
2018-04-29T00:46:49.621Z,81.00
2018-04-29T00:52:08.488Z,81.60
2018-04-29T00:57:10.086Z,81.80
2018-04-29T01:02:12.391Z,80.30
2018-04-29T01:07:14.693Z,80.10
2018-04-29T01:12:16.221Z,80.10
2018-04-29T01:17:21.534Z,79.40
2018-04-29T01:22:24.123Z,79.90
2018-04-29T01:27:26.967Z,79.60
2018-04-29T01:32:30.080Z,79.80
2018-04-29T01:37:33.211Z,79.80
2018-04-29T01:42:34.811Z,79.50
2018-04-29T01:47:36.335Z,80.40
2018-04-29T01:52:37.853Z,81.40
2018-04-29T01:57:46.405Z,82.50
2018-04-29T02:02:50.153Z,83.10
2018-04-29T02:07:51.700Z,83.50
2018-04-29T02:12:53.232Z,83.60
2018-04-29T02:17:54.779Z,84.40
2018-04-29T02:22:56.414Z,84.00
2018-04-29T02:27:58.730Z,83.90
2018-04-29T02:33:00.271Z,83.90
2018-04-29T02:38:02.515Z,84.70
2018-04-29T02:43:03.986Z,84.70
2018-04-29T02:48:05.556Z,84.60
2018-04-29T02:53:07.192Z,84.80
2018-04-29T02:58:08.702Z,84.60
2018-04-29T03:03:10.276Z,84.10
2018-04-29T03:08:11.825Z,83.40
2018-04-29T03:13:13.396Z,83.10
2018-04-29T03:18:14.946Z,83.00
2018-04-29T03:23:16.463Z,83.90
2018-04-29T03:28:17.995Z,83.70
2018-04-29T03:33:19.450Z,84.10
2018-04-29T03:38:20.998Z,84.80
2018-04-29T03:43:22.730Z,84.50
2018-04-29T03:48:24.261Z,85.00
2018-04-29T03:53:25.780Z,85.30
2018-04-29T04:14:33.768Z,85.90
2018-04-29T04:19:35.292Z,85.90
2018-04-29T04:24:36.888Z,85.80
2018-04-29T04:29:38.447Z,85.70
2018-04-29T04:34:40.017Z,85.20
2018-04-29T04:39:41.563Z,84.60
2018-04-29T04:44:43.156Z,84.50
2018-04-29T04:49:44.740Z,83.80
2018-04-29T04:54:46.685Z,82.50
2018-04-29T04:59:48.423Z,81.80
2018-04-29T05:04:50.023Z,75.90
2018-04-29T05:09:51.641Z,68.90
2018-04-29T05:14:53.340Z,61.70
2018-04-29T05:19:55.653Z,52.10
2018-04-29T05:24:57.219Z,52.00
2018-04-29T05:29:58.764Z,49.20
2018-04-29T05:35:00.952Z,46.40
2018-04-29T05:40:02.560Z,47.50
2018-04-29T05:45:04.392Z,52.10
2018-04-29T05:50:06.633Z,61.00
2018-04-29T05:55:08.286Z,60.90
2018-04-29T06:00:09.898Z,67.10
2018-04-29T06:05:11.455Z,74.20
2018-04-29T06:10:13.046Z,79.90
2018-04-29T06:15:15.377Z,89.80
2018-04-29T06:20:16.912Z,89.90
2018-04-29T06:25:19.242Z,91.00
2018-04-29T06:30:20.770Z,90.80
2018-04-29T06:35:23.116Z,89.00
2018-04-29T06:40:24.657Z,89.00
2018-04-29T06:45:26.209Z,87.40
2018-04-29T06:50:27.809Z,80.40
2018-04-29T06:55:29.398Z,65.50
2018-04-29T07:00:30.872Z,60.60
2018-04-29T07:05:32.412Z,58.20
2018-04-29T07:10:34.143Z,56.60
2018-04-29T07:15:35.790Z,58.20
2018-04-29T07:20:38.044Z,63.90
2018-04-29T07:25:39.561Z,63.90
2018-04-29T07:30:41.849Z,71.80
2018-04-29T07:35:43.344Z,71.60
2018-04-29T07:40:44.988Z,74.70
2018-04-29T07:45:46.699Z,81.60
2018-04-29T07:50:48.269Z,85.70
2018-04-29T07:55:49.815Z,88.70
2018-04-29T08:00:51.494Z,89.10
2018-04-29T08:05:53.766Z,69.80
2018-04-29T08:10:56.038Z,69.70
2018-04-29T08:15:58.262Z,71.60
2018-04-29T08:20:59.832Z,71.90
2018-04-29T08:26:01.369Z,74.30
2018-04-29T08:31:04.220Z,79.30
2018-04-29T08:36:05.877Z,80.40
2018-04-29T08:41:07.676Z,81.40
2018-04-29T08:46:09.234Z,83.30
2018-04-29T08:51:10.809Z,84.60
2018-04-29T08:56:12.375Z,82.50
2018-04-29T09:01:13.906Z,85.20
2018-04-29T09:06:15.542Z,83.30
2018-04-29T09:11:17.233Z,84.20
2018-04-29T09:16:18.918Z,78.10
2018-04-29T09:21:20.600Z,75.70
2018-04-29T09:26:22.254Z,76.80
2018-04-29T09:31:23.950Z,80.00
2018-04-29T09:36:28.159Z,80.50
2018-04-29T09:41:33.465Z,79.50
2018-04-29T09:46:38.448Z,79.20
2018-04-29T09:51:42.015Z,79.00
2018-04-29T09:56:46.160Z,78.10
2018-04-29T10:01:53.257Z,73.80
2018-04-29T10:07:04.284Z,72.50
2018-04-29T10:12:10.201Z,72.70
2018-04-29T10:17:17.964Z,72.80
2018-04-29T10:22:20.664Z,71.70
2018-04-29T10:27:22.352Z,70.90
2018-04-29T10:32:24.212Z,70.20
2018-04-29T10:37:26.157Z,67.10
2018-04-29T10:48:03.823Z,68.00
2018-04-29T10:53:05.891Z,67.80
2018-04-29T10:58:14.340Z,66.90
2018-04-29T11:03:20.727Z,66.80
2018-04-29T11:08:27.214Z,66.80
2018-04-29T11:13:34.065Z,66.60
2018-04-29T11:18:43.934Z,67.20
2018-04-29T11:23:50.180Z,67.20
2018-04-29T11:28:56.592Z,66.30
2018-04-29T11:34:04.463Z,67.40
2018-04-29T11:39:07.590Z,65.20
2018-04-29T11:44:09.195Z,65.20
2018-04-29T11:49:11.143Z,63.10
2018-04-29T11:54:13.585Z,66.00
2018-04-29T11:59:15.295Z,63.70
2018-04-29T12:04:17.148Z,64.30
2018-04-29T12:09:19.403Z,63.20
2018-04-29T12:14:25.679Z,60.60
2018-04-29T12:19:38.031Z,62.70
2018-04-29T12:24:45.061Z,60.80
2018-04-29T12:29:51.929Z,60.20
2018-04-29T12:35:00.039Z,58.60
2018-04-29T12:40:07.525Z,58.50
2018-04-29T12:50:59.432Z,57.30
2018-04-29T12:56:03.588Z,57.30
2018-04-29T13:06:54.055Z,56.20
2018-04-29T13:11:55.664Z,57.60
2018-04-29T13:17:00.246Z,56.90
2018-04-29T13:22:05.397Z,57.30
2018-04-29T13:27:08.276Z,57.00
2018-04-29T13:32:09.880Z,54.90
2018-04-29T13:37:11.427Z,54.20
2018-04-29T13:42:13.008Z,55.50
2018-04-29T13:58:26.639Z,49.00
2018-04-29T14:03:28.487Z,47.50
2018-04-29T14:08:30.955Z,46.40
2018-04-29T14:13:32.659Z,45.10
2018-04-29T14:24:19.430Z,45.50
2018-04-29T14:29:21.813Z,45.50
2018-04-29T14:34:23.384Z,45.40
2018-04-29T14:39:25.685Z,45.90
2018-04-29T14:44:29.857Z,46.30
2018-04-29T14:49:48.162Z,46.30
2018-04-29T14:54:50.992Z,46.10
2018-04-29T14:59:52.650Z,45.30
2018-04-29T15:04:54.196Z,45.10
2018-04-29T15:09:56.449Z,45.50
2018-04-29T15:15:00.319Z,45.30
2018-04-29T15:20:02.080Z,44.40
2018-04-29T15:25:13.214Z,46.30
2018-04-29T15:30:15.589Z,46.90
2018-04-29T15:35:17.148Z,46.90
2018-04-29T15:40:18.705Z,45.40
2018-04-29T15:45:30.255Z,47.70
2018-04-29T15:50:32.683Z,47.60
2018-04-29T15:55:34.738Z,47.30
2018-04-29T16:00:36.300Z,47.70
2018-04-29T16:05:38.323Z,47.40
2018-04-29T16:10:40.858Z,46.50
2018-04-29T16:26:44.689Z,46.60
2018-04-29T16:31:46.779Z,47.80
2018-04-29T16:36:49.272Z,46.90
2018-04-29T16:41:51.614Z,46.50
2018-04-29T16:46:53.380Z,46.40
2018-04-29T16:51:59.580Z,47.80
2018-04-29T16:57:02.091Z,47.60
2018-04-29T17:02:05.463Z,47.90
2018-04-29T17:12:42.853Z,51.60
2018-04-29T17:34:30.417Z,53.30
2018-04-29T17:39:32.297Z,53.70
2018-04-29T17:44:34.754Z,53.60
2018-04-29T17:49:38.249Z,53.90
2018-04-29T17:55:08.760Z,54.20
2018-04-29T18:00:32.981Z,54.30
2018-04-29T18:05:34.655Z,54.60
2018-04-29T18:21:48.410Z,56.90
2018-04-29T18:26:50.001Z,57.20
2018-04-29T18:31:54.154Z,57.60
2018-04-29T18:36:56.303Z,57.70
2018-04-29T18:41:58.628Z,58.00
2018-04-29T18:47:00.943Z,57.80
2018-04-29T18:52:03.685Z,57.40
2018-04-29T18:57:06.536Z,57.80
2018-04-29T19:02:08.643Z,59.00
2018-04-29T19:07:10.258Z,59.10
2018-04-29T19:12:12.016Z,59.20
2018-04-29T19:17:14.039Z,58.70
2018-04-29T19:22:16.051Z,58.50
2018-04-29T19:27:19.332Z,59.10
2018-04-29T19:32:21.241Z,58.80
2018-04-29T19:37:23.372Z,58.90
2018-04-29T19:42:25.258Z,59.00
2018-04-29T19:47:28.687Z,59.50
2018-04-29T19:52:30.485Z,59.50
2018-04-29T19:57:32.527Z,60.10
2018-04-29T20:02:35.051Z,60.10
2018-04-29T20:07:36.914Z,60.10
2018-04-29T20:12:39.103Z,60.10
2018-04-29T20:17:40.926Z,60.80
2018-04-29T20:22:43.218Z,60.70
2018-04-29T20:27:46.357Z,60.90
2018-04-29T20:32:48.529Z,60.90
2018-04-29T20:37:50.971Z,60.60
2018-04-29T20:42:53.826Z,61.10
2018-04-29T20:47:56.003Z,61.10
2018-04-29T20:52:58.099Z,61.80
2018-04-29T20:58:00.388Z,62.20
2018-04-29T21:03:02.504Z,62.60
2018-04-29T21:08:05.371Z,62.90
2018-04-29T21:13:07.146Z,63.90
2018-04-29T21:18:09.643Z,64.80
2018-04-29T21:23:11.971Z,64.60
2018-04-29T21:28:14.250Z,65.20
2018-04-29T21:33:16.540Z,64.90
2018-04-29T21:38:19.053Z,64.50
2018-04-29T21:43:20.633Z,64.40
2018-04-29T21:48:22.172Z,63.80
2018-04-29T21:53:23.753Z,63.70
2018-04-29T21:58:25.340Z,63.60
2018-04-29T22:03:26.880Z,63.70
2018-04-29T22:08:28.450Z,63.90
2018-04-29T22:13:30.085Z,63.40
2018-04-29T22:18:31.644Z,63.70
2018-04-29T22:23:33.163Z,63.20
2018-04-29T22:28:34.731Z,62.10
2018-04-29T22:33:36.278Z,62.90
2018-04-29T22:38:38.561Z,63.10
2018-04-29T22:43:40.836Z,63.10
2018-04-29T22:48:42.355Z,63.10
2018-04-29T22:53:43.911Z,63.80
2018-04-29T22:58:45.608Z,63.90
2018-04-29T23:03:47.124Z,64.80
2018-04-29T23:08:49.451Z,65.10
2018-04-29T23:13:51.035Z,65.10
2018-04-29T23:18:52.757Z,65.00
2018-04-29T23:23:55.060Z,64.90
2018-04-29T23:28:56.643Z,64.90
2018-04-29T23:33:58.200Z,64.80
2018-04-29T23:38:59.743Z,64.20
2018-04-29T23:44:02.018Z,63.50
2018-04-29T23:49:04.419Z,64.40
2018-04-29T23:54:06.700Z,64.70
2018-04-29T23:59:08.976Z,65.20
